sensor_id;sensor_type;location;lat;lon;timestamp;temperature;humidity
22418;DHT22;11376;50.932;4.442;2022-07-29T00:01:06;20.40;99.90
22418;DHT22;11376;50.932;4.442;2022-07-29T00:03:32;20.40;99.90
22418;DHT22;11376;50.932;4.442;2022-07-29T00:05:58;20.40;99.90
22418;DHT22;11376;50.932;4.442;2022-07-29T00:08:23;20.40;99.90
22418;DHT22;11376;50.932;4.442;2022-07-29T00:10:50;20.40;99.90
22418;DHT22;11376;50.932;4.442;2022-07-29T00:13:16;20.40;99.90
22418;DHT22;11376;50.932;4.442;2022-07-29T00:15:42;20.40;99.90
22418;DHT22;11376;50.932;4.442;2022-07-29T00:18:07;20.40;99.90
22418;DHT22;11376;50.932;4.442;2022-07-29T00:20:33;20.40;99.90
22418;DHT22;11376;50.932;4.442;2022-07-29T00:22:59;20.40;99.90
22418;DHT22;11376;50.932;4.442;2022-07-29T00:25:24;20.30;99.90
22418;DHT22;11376;50.932;4.442;2022-07-29T00:27:50;20.40;99.90
22418;DHT22;11376;50.932;4.442;2022-07-29T00:30:15;20.30;99.90
22418;DHT22;11376;50.932;4.442;2022-07-29T00:32:41;20.30;99.90
22418;DHT22;11376;50.932;4.442;2022-07-29T00:35:07;20.30;99.90
22418;DHT22;11376;50.932;4.442;2022-07-29T00:37:51;20.30;99.90
22418;DHT22;11376;50.932;4.442;2022-07-29T00:40:17;20.30;99.90
22418;DHT22;11376;50.932;4.442;2022-07-29T00:42:48;20.40;99.90
22418;DHT22;11376;50.932;4.442;2022-07-29T00:45:14;20.50;99.90
22418;DHT22;11376;50.932;4.442;2022-07-29T00:47:40;20.70;99.90
22418;DHT22;11376;50.932;4.442;2022-07-29T00:50:07;20.80;99.90
22418;DHT22;11376;50.932;4.442;2022-07-29T00:52:35;20.90;99.90
22418;DHT22;11376;50.932;4.442;2022-07-29T00:55:03;20.90;99.90
22418;DHT22;11376;50.932;4.442;2022-07-29T00:57:29;20.90;99.90
22418;DHT22;11376;50.932;4.442;2022-07-29T00:59:55;20.80;99.90
22418;DHT22;11376;50.932;4.442;2022-07-29T01:02:21;20.80;99.90
22418;DHT22;11376;50.932;4.442;2022-07-29T01:04:47;20.70;99.90
22418;DHT22;11376;50.932;4.442;2022-07-29T01:07:13;20.70;99.90
22418;DHT22;11376;50.932;4.442;2022-07-29T01:09:39;20.70;99.90
22418;DHT22;11376;50.932;4.442;2022-07-29T01:12:06;20.60;99.90
22418;DHT22;11376;50.932;4.442;2022-07-29T01:14:32;20.60;99.90
22418;DHT22;11376;50.932;4.442;2022-07-29T01:17:02;20.60;99.90
22418;DHT22;11376;50.932;4.442;2022-07-29T01:19:48;20.60;99.90
22418;DHT22;11376;50.932;4.442;2022-07-29T01:25:05;20.50;99.90
22418;DHT22;11376;50.932;4.442;2022-07-29T01:30:26;20.40;99.90
22418;DHT22;11376;50.932;4.442;2022-07-29T01:32:56;20.40;99.90
22418;DHT22;11376;50.932;4.442;2022-07-29T01:35:27;20.30;99.90
22418;DHT22;11376;50.932;4.442;2022-07-29T01:38:29;20.30;99.90
22418;DHT22;11376;50.932;4.442;2022-07-29T01:41:08;20.20;99.90
22418;DHT22;11376;50.932;4.442;2022-07-29T01:43:41;20.10;99.90
22418;DHT22;11376;50.932;4.442;2022-07-29T01:46:13;20.10;99.90
22418;DHT22;11376;50.932;4.442;2022-07-29T01:48:48;20.00;99.90
22418;DHT22;11376;50.932;4.442;2022-07-29T01:51:21;19.90;99.90
22418;DHT22;11376;50.932;4.442;2022-07-29T01:54:06;19.80;99.90
22418;DHT22;11376;50.932;4.442;2022-07-29T01:56:35;19.80;99.90
22418;DHT22;11376;50.932;4.442;2022-07-29T01:59:03;19.70;99.90
22418;DHT22;11376;50.932;4.442;2022-07-29T02:01:31;19.70;99.90
22418;DHT22;11376;50.932;4.442;2022-07-29T02:03:59;19.70;99.90
22418;DHT22;11376;50.932;4.442;2022-07-29T02:06:27;19.60;99.90
22418;DHT22;11376;50.932;4.442;2022-07-29T02:08:56;19.50;99.90
22418;DHT22;11376;50.932;4.442;2022-07-29T02:11:22;19.40;99.90
22418;DHT22;11376;50.932;4.442;2022-07-29T02:13:48;19.40;99.90
22418;DHT22;11376;50.932;4.442;2022-07-29T02:16:17;19.30;99.90
22418;DHT22;11376;50.932;4.442;2022-07-29T02:18:45;19.30;99.90
22418;DHT22;11376;50.932;4.442;2022-07-29T02:21:12;19.30;99.90
22418;DHT22;11376;50.932;4.442;2022-07-29T02:23:38;19.20;99.90
22418;DHT22;11376;50.932;4.442;2022-07-29T02:26:06;19.20;99.90
22418;DHT22;11376;50.932;4.442;2022-07-29T02:28:32;19.10;99.90
22418;DHT22;11376;50.932;4.442;2022-07-29T02:31:01;19.10;99.90
22418;DHT22;11376;50.932;4.442;2022-07-29T02:33:29;19.00;99.90
22418;DHT22;11376;50.932;4.442;2022-07-29T02:35:56;18.90;99.90
22418;DHT22;11376;50.932;4.442;2022-07-29T02:38:24;18.90;99.90
22418;DHT22;11376;50.932;4.442;2022-07-29T02:41:16;18.80;99.90
22418;DHT22;11376;50.932;4.442;2022-07-29T02:43:47;18.80;99.90
22418;DHT22;11376;50.932;4.442;2022-07-29T02:46:18;18.70;99.90
22418;DHT22;11376;50.932;4.442;2022-07-29T02:48:57;18.70;99.90
22418;DHT22;11376;50.932;4.442;2022-07-29T02:51:27;18.60;99.90
22418;DHT22;11376;50.932;4.442;2022-07-29T02:53:55;18.60;99.90
22418;DHT22;11376;50.932;4.442;2022-07-29T02:56:25;18.50;99.90
22418;DHT22;11376;50.932;4.442;2022-07-29T02:58:58;18.40;99.90
22418;DHT22;11376;50.932;4.442;2022-07-29T03:01:30;18.40;99.90
22418;DHT22;11376;50.932;4.442;2022-07-29T03:04:00;18.40;99.90
22418;DHT22;11376;50.932;4.442;2022-07-29T03:06:28;18.30;99.90
22418;DHT22;11376;50.932;4.442;2022-07-29T03:08:55;18.30;99.90
22418;DHT22;11376;50.932;4.442;2022-07-29T03:11:21;18.30;99.90
22418;DHT22;11376;50.932;4.442;2022-07-29T03:13:47;18.30;99.90
22418;DHT22;11376;50.932;4.442;2022-07-29T03:16:14;18.30;99.90
22418;DHT22;11376;50.932;4.442;2022-07-29T03:18:40;18.20;99.90
22418;DHT22;11376;50.932;4.442;2022-07-29T03:21:06;18.20;99.90
22418;DHT22;11376;50.932;4.442;2022-07-29T03:23:32;18.20;99.90
22418;DHT22;11376;50.932;4.442;2022-07-29T03:25:57;18.10;99.90
22418;DHT22;11376;50.932;4.442;2022-07-29T03:28:24;18.10;99.90
22418;DHT22;11376;50.932;4.442;2022-07-29T03:30:50;18.10;99.90
22418;DHT22;11376;50.932;4.442;2022-07-29T03:33:16;18.00;99.90
22418;DHT22;11376;50.932;4.442;2022-07-29T03:35:42;18.00;99.90
22418;DHT22;11376;50.932;4.442;2022-07-29T03:38:07;18.00;99.90
22418;DHT22;11376;50.932;4.442;2022-07-29T03:40:45;17.90;99.90
22418;DHT22;11376;50.932;4.442;2022-07-29T03:43:13;17.90;99.90
22418;DHT22;11376;50.932;4.442;2022-07-29T03:45:43;17.90;99.90
22418;DHT22;11376;50.932;4.442;2022-07-29T03:48:12;17.90;99.90
22418;DHT22;11376;50.932;4.442;2022-07-29T03:50:39;17.80;99.90
22418;DHT22;11376;50.932;4.442;2022-07-29T03:53:05;17.80;99.90
22418;DHT22;11376;50.932;4.442;2022-07-29T03:55:36;17.80;99.90
22418;DHT22;11376;50.932;4.442;2022-07-29T03:58:03;17.70;99.90
22418;DHT22;11376;50.932;4.442;2022-07-29T04:00:29;17.70;99.90
22418;DHT22;11376;50.932;4.442;2022-07-29T04:02:56;17.70;99.90
22418;DHT22;11376;50.932;4.442;2022-07-29T04:05:22;17.70;99.90
22418;DHT22;11376;50.932;4.442;2022-07-29T04:07:48;17.70;99.90
22418;DHT22;11376;50.932;4.442;2022-07-29T04:10:15;17.60;99.90
22418;DHT22;11376;50.932;4.442;2022-07-29T04:12:41;17.60;99.90
22418;DHT22;11376;50.932;4.442;2022-07-29T04:15:07;17.60;99.90
22418;DHT22;11376;50.932;4.442;2022-07-29T04:17:33;17.60;99.90
22418;DHT22;11376;50.932;4.442;2022-07-29T04:19:58;17.50;99.90
22418;DHT22;11376;50.932;4.442;2022-07-29T04:22:24;17.60;99.90
22418;DHT22;11376;50.932;4.442;2022-07-29T04:24:50;17.50;99.90
22418;DHT22;11376;50.932;4.442;2022-07-29T04:27:15;17.50;99.90
22418;DHT22;11376;50.932;4.442;2022-07-29T04:29:41;17.50;99.90
22418;DHT22;11376;50.932;4.442;2022-07-29T04:32:07;17.50;99.90
22418;DHT22;11376;50.932;4.442;2022-07-29T04:34:32;17.50;99.90
22418;DHT22;11376;50.932;4.442;2022-07-29T04:36:58;17.40;99.90
22418;DHT22;11376;50.932;4.442;2022-07-29T04:39:25;17.40;99.90
22418;DHT22;11376;50.932;4.442;2022-07-29T04:41:51;17.40;99.90
22418;DHT22;11376;50.932;4.442;2022-07-29T04:44:16;17.40;99.90
22418;DHT22;11376;50.932;4.442;2022-07-29T04:46:42;17.40;99.90
22418;DHT22;11376;50.932;4.442;2022-07-29T04:49:08;17.40;99.90
22418;DHT22;11376;50.932;4.442;2022-07-29T04:51:34;17.40;99.90
22418;DHT22;11376;50.932;4.442;2022-07-29T04:54:00;17.40;99.90
22418;DHT22;11376;50.932;4.442;2022-07-29T04:56:26;17.40;99.90
22418;DHT22;11376;50.932;4.442;2022-07-29T04:58:52;17.40;99.90
22418;DHT22;11376;50.932;4.442;2022-07-29T05:01:18;17.40;99.90
22418;DHT22;11376;50.932;4.442;2022-07-29T05:03:44;17.40;99.90
22418;DHT22;11376;50.932;4.442;2022-07-29T05:06:10;17.40;99.90
22418;DHT22;11376;50.932;4.442;2022-07-29T05:08:37;17.40;99.90
22418;DHT22;11376;50.932;4.442;2022-07-29T05:11:03;17.50;99.90
22418;DHT22;11376;50.932;4.442;2022-07-29T05:13:29;17.50;99.90
22418;DHT22;11376;50.932;4.442;2022-07-29T05:15:55;17.50;99.90
22418;DHT22;11376;50.932;4.442;2022-07-29T05:18:21;17.60;99.90
22418;DHT22;11376;50.932;4.442;2022-07-29T05:20:46;17.60;99.90
22418;DHT22;11376;50.932;4.442;2022-07-29T05:23:12;17.70;99.90
22418;DHT22;11376;50.932;4.442;2022-07-29T05:25:38;17.70;99.90
22418;DHT22;11376;50.932;4.442;2022-07-29T05:28:04;17.80;99.90
22418;DHT22;11376;50.932;4.442;2022-07-29T05:30:29;17.80;99.90
22418;DHT22;11376;50.932;4.442;2022-07-29T05:32:55;17.80;99.90
22418;DHT22;11376;50.932;4.442;2022-07-29T05:35:20;17.90;99.90
22418;DHT22;11376;50.932;4.442;2022-07-29T05:37:46;18.00;99.90
22418;DHT22;11376;50.932;4.442;2022-07-29T05:40:12;18.00;99.90
22418;DHT22;11376;50.932;4.442;2022-07-29T05:42:37;18.10;99.90
22418;DHT22;11376;50.932;4.442;2022-07-29T05:45:03;18.30;99.90
22418;DHT22;11376;50.932;4.442;2022-07-29T05:47:29;18.40;99.90
22418;DHT22;11376;50.932;4.442;2022-07-29T05:49:54;18.60;99.90
22418;DHT22;11376;50.932;4.442;2022-07-29T05:52:21;18.70;99.90
22418;DHT22;11376;50.932;4.442;2022-07-29T05:54:46;18.90;99.90
22418;DHT22;11376;50.932;4.442;2022-07-29T05:57:19;19.10;99.90
22418;DHT22;11376;50.932;4.442;2022-07-29T05:59:46;19.20;99.90
22418;DHT22;11376;50.932;4.442;2022-07-29T06:02:12;19.30;99.90
22418;DHT22;11376;50.932;4.442;2022-07-29T06:04:38;19.30;99.90
22418;DHT22;11376;50.932;4.442;2022-07-29T06:07:03;19.30;99.90
22418;DHT22;11376;50.932;4.442;2022-07-29T06:09:29;19.30;99.90
22418;DHT22;11376;50.932;4.442;2022-07-29T06:11:55;19.30;99.90
22418;DHT22;11376;50.932;4.442;2022-07-29T06:14:20;19.30;99.90
22418;DHT22;11376;50.932;4.442;2022-07-29T06:16:46;19.30;99.90
22418;DHT22;11376;50.932;4.442;2022-07-29T06:19:12;19.40;99.90
22418;DHT22;11376;50.932;4.442;2022-07-29T06:21:45;19.40;99.90
22418;DHT22;11376;50.932;4.442;2022-07-29T06:24:14;19.40;99.90
22418;DHT22;11376;50.932;4.442;2022-07-29T06:26:41;19.40;99.90
22418;DHT22;11376;50.932;4.442;2022-07-29T06:29:07;19.40;99.90
22418;DHT22;11376;50.932;4.442;2022-07-29T06:31:33;19.40;99.90
22418;DHT22;11376;50.932;4.442;2022-07-29T06:33:59;19.40;99.90
22418;DHT22;11376;50.932;4.442;2022-07-29T06:36:24;19.40;99.90
22418;DHT22;11376;50.932;4.442;2022-07-29T06:38:50;19.50;99.90
22418;DHT22;11376;50.932;4.442;2022-07-29T06:41:16;19.60;99.90
22418;DHT22;11376;50.932;4.442;2022-07-29T06:43:43;19.60;99.90
22418;DHT22;11376;50.932;4.442;2022-07-29T06:46:14;19.70;99.90
22418;DHT22;11376;50.932;4.442;2022-07-29T06:48:41;19.70;99.90
22418;DHT22;11376;50.932;4.442;2022-07-29T06:51:11;19.80;99.90
22418;DHT22;11376;50.932;4.442;2022-07-29T06:53:37;19.90;99.90
22418;DHT22;11376;50.932;4.442;2022-07-29T06:56:05;20.00;99.90
22418;DHT22;11376;50.932;4.442;2022-07-29T06:58:31;20.00;99.90
22418;DHT22;11376;50.932;4.442;2022-07-29T07:01:00;20.20;99.90
22418;DHT22;11376;50.932;4.442;2022-07-29T07:03:26;20.30;99.90
22418;DHT22;11376;50.932;4.442;2022-07-29T07:05:52;20.40;99.90
22418;DHT22;11376;50.932;4.442;2022-07-29T07:08:19;20.60;99.90
22418;DHT22;11376;50.932;4.442;2022-07-29T07:10:46;20.90;99.90
22418;DHT22;11376;50.932;4.442;2022-07-29T07:13:11;21.10;99.90
22418;DHT22;11376;50.932;4.442;2022-07-29T07:15:38;21.60;99.90
22418;DHT22;11376;50.932;4.442;2022-07-29T07:18:04;22.00;99.90
22418;DHT22;11376;50.932;4.442;2022-07-29T07:20:30;22.40;99.90
22418;DHT22;11376;50.932;4.442;2022-07-29T07:22:56;22.70;99.90
22418;DHT22;11376;50.932;4.442;2022-07-29T07:25:22;22.90;99.90
22418;DHT22;11376;50.932;4.442;2022-07-29T07:27:47;23.10;99.90
22418;DHT22;11376;50.932;4.442;2022-07-29T07:30:13;23.20;99.90
22418;DHT22;11376;50.932;4.442;2022-07-29T07:32:39;23.30;99.90
22418;DHT22;11376;50.932;4.442;2022-07-29T07:35:07;23.30;99.90
22418;DHT22;11376;50.932;4.442;2022-07-29T07:37:34;23.10;99.90
22418;DHT22;11376;50.932;4.442;2022-07-29T07:40:00;23.00;99.90
22418;DHT22;11376;50.932;4.442;2022-07-29T07:42:26;22.90;99.90
22418;DHT22;11376;50.932;4.442;2022-07-29T07:44:51;22.90;99.90
22418;DHT22;11376;50.932;4.442;2022-07-29T07:47:18;22.70;99.90
22418;DHT22;11376;50.932;4.442;2022-07-29T07:49:49;22.70;99.90
22418;DHT22;11376;50.932;4.442;2022-07-29T07:52:16;22.60;99.90
22418;DHT22;11376;50.932;4.442;2022-07-29T07:54:42;22.60;99.90
22418;DHT22;11376;50.932;4.442;2022-07-29T07:57:09;22.70;99.90
22418;DHT22;11376;50.932;4.442;2022-07-29T07:59:35;22.60;99.90
22418;DHT22;11376;50.932;4.442;2022-07-29T08:02:00;22.50;99.90
22418;DHT22;11376;50.932;4.442;2022-07-29T08:04:26;22.40;99.90
22418;DHT22;11376;50.932;4.442;2022-07-29T08:06:52;22.30;99.90
22418;DHT22;11376;50.932;4.442;2022-07-29T08:09:20;22.30;99.90
22418;DHT22;11376;50.932;4.442;2022-07-29T08:11:45;22.50;99.90
22418;DHT22;11376;50.932;4.442;2022-07-29T08:14:11;22.60;99.90
22418;DHT22;11376;50.932;4.442;2022-07-29T08:16:37;22.80;99.90
22418;DHT22;11376;50.932;4.442;2022-07-29T08:19:02;22.90;99.90
22418;DHT22;11376;50.932;4.442;2022-07-29T08:21:28;22.90;99.90
22418;DHT22;11376;50.932;4.442;2022-07-29T08:23:54;23.00;99.90
22418;DHT22;11376;50.932;4.442;2022-07-29T08:26:41;23.20;99.90
22418;DHT22;11376;50.932;4.442;2022-07-29T08:29:07;23.30;99.90
22418;DHT22;11376;50.932;4.442;2022-07-29T08:31:32;23.40;99.90
22418;DHT22;11376;50.932;4.442;2022-07-29T08:33:58;23.40;99.90
22418;DHT22;11376;50.932;4.442;2022-07-29T08:36:25;23.60;99.90
22418;DHT22;11376;50.932;4.442;2022-07-29T08:38:51;23.60;99.90
22418;DHT22;11376;50.932;4.442;2022-07-29T08:41:18;23.70;99.90
22418;DHT22;11376;50.932;4.442;2022-07-29T08:43:44;23.70;99.90
22418;DHT22;11376;50.932;4.442;2022-07-29T08:46:10;23.80;99.90
22418;DHT22;11376;50.932;4.442;2022-07-29T08:48:36;24.00;99.90
22418;DHT22;11376;50.932;4.442;2022-07-29T08:51:02;24.20;99.90
22418;DHT22;11376;50.932;4.442;2022-07-29T08:53:28;24.20;99.90
22418;DHT22;11376;50.932;4.442;2022-07-29T08:55:54;24.30;99.90
22418;DHT22;11376;50.932;4.442;2022-07-29T08:58:21;24.40;99.90
22418;DHT22;11376;50.932;4.442;2022-07-29T09:00:55;24.40;99.90
22418;DHT22;11376;50.932;4.442;2022-07-29T09:03:23;24.50;99.90
22418;DHT22;11376;50.932;4.442;2022-07-29T09:05:50;24.60;99.90
22418;DHT22;11376;50.932;4.442;2022-07-29T09:08:17;24.80;99.90
22418;DHT22;11376;50.932;4.442;2022-07-29T09:10:43;24.90;99.90
22418;DHT22;11376;50.932;4.442;2022-07-29T09:13:09;25.00;99.90
22418;DHT22;11376;50.932;4.442;2022-07-29T09:15:35;25.00;99.90
22418;DHT22;11376;50.932;4.442;2022-07-29T09:18:01;25.10;99.90
22418;DHT22;11376;50.932;4.442;2022-07-29T09:20:28;25.20;99.90
22418;DHT22;11376;50.932;4.442;2022-07-29T09:23:13;25.30;99.90
22418;DHT22;11376;50.932;4.442;2022-07-29T09:25:40;25.50;99.90
22418;DHT22;11376;50.932;4.442;2022-07-29T09:28:14;25.60;99.90
22418;DHT22;11376;50.932;4.442;2022-07-29T09:30:53;25.80;99.90
22418;DHT22;11376;50.932;4.442;2022-07-29T09:33:21;25.90;99.90
22418;DHT22;11376;50.932;4.442;2022-07-29T09:36:05;26.00;99.90
22418;DHT22;11376;50.932;4.442;2022-07-29T09:38:33;26.10;99.90
22418;DHT22;11376;50.932;4.442;2022-07-29T09:41:01;26.20;99.90
22418;DHT22;11376;50.932;4.442;2022-07-29T09:43:27;26.30;99.90
22418;DHT22;11376;50.932;4.442;2022-07-29T09:45:53;26.40;99.90
22418;DHT22;11376;50.932;4.442;2022-07-29T09:48:20;26.40;99.90
22418;DHT22;11376;50.932;4.442;2022-07-29T09:50:46;26.50;99.90
22418;DHT22;11376;50.932;4.442;2022-07-29T09:53:37;26.70;99.90
22418;DHT22;11376;50.932;4.442;2022-07-29T09:56:04;26.80;99.90
22418;DHT22;11376;50.932;4.442;2022-07-29T09:58:30;27.00;99.90
22418;DHT22;11376;50.932;4.442;2022-07-29T10:00:56;27.00;99.80
22418;DHT22;11376;50.932;4.442;2022-07-29T10:03:22;27.10;99.80
22418;DHT22;11376;50.932;4.442;2022-07-29T10:06:08;27.30;99.90
22418;DHT22;11376;50.932;4.442;2022-07-29T10:08:34;27.40;99.70
22418;DHT22;11376;50.932;4.442;2022-07-29T10:11:16;27.50;99.20
22418;DHT22;11376;50.932;4.442;2022-07-29T10:13:43;27.50;98.90
22418;DHT22;11376;50.932;4.442;2022-07-29T10:16:10;27.70;98.00
22418;DHT22;11376;50.932;4.442;2022-07-29T10:18:38;27.80;97.40
22418;DHT22;11376;50.932;4.442;2022-07-29T10:21:05;27.80;97.70
22418;DHT22;11376;50.932;4.442;2022-07-29T10:23:31;27.70;97.50
22418;DHT22;11376;50.932;4.442;2022-07-29T10:25:57;27.90;97.30
22418;DHT22;11376;50.932;4.442;2022-07-29T10:28:22;28.00;96.90
22418;DHT22;11376;50.932;4.442;2022-07-29T10:30:53;28.10;96.70
22418;DHT22;11376;50.932;4.442;2022-07-29T10:42:21;28.70;94.70
22418;DHT22;11376;50.932;4.442;2022-07-29T10:44:48;28.70;94.80
22418;DHT22;11376;50.932;4.442;2022-07-29T10:47:24;28.90;94.10
22418;DHT22;11376;50.932;4.442;2022-07-29T10:50:05;29.10;92.60
22418;DHT22;11376;50.932;4.442;2022-07-29T10:52:55;29.30;91.80
22418;DHT22;11376;50.932;4.442;2022-07-29T10:55:48;29.40;91.10
22418;DHT22;11376;50.932;4.442;2022-07-29T10:58:22;29.50;90.30
22418;DHT22;11376;50.932;4.442;2022-07-29T11:00:52;29.50;89.70
22418;DHT22;11376;50.932;4.442;2022-07-29T11:06:07;29.90;88.10
22418;DHT22;11376;50.932;4.442;2022-07-29T11:08:32;30.60;87.10
22418;DHT22;11376;50.932;4.442;2022-07-29T11:11:30;31.20;86.40
22418;DHT22;11376;50.932;4.442;2022-07-29T11:13:56;32.00;83.10
22418;DHT22;11376;50.932;4.442;2022-07-29T11:16:22;33.00;78.30
22418;DHT22;11376;50.932;4.442;2022-07-29T11:21:36;37.10;62.30
22418;DHT22;11376;50.932;4.442;2022-07-29T11:24:17;39.40;55.70
22418;DHT22;11376;50.932;4.442;2022-07-29T11:26:43;42.10;48.30
22418;DHT22;11376;50.932;4.442;2022-07-29T11:29:21;44.10;41.80
22418;DHT22;11376;50.932;4.442;2022-07-29T11:31:51;45.90;37.50
22418;DHT22;11376;50.932;4.442;2022-07-29T11:34:33;47.90;34.20
22418;DHT22;11376;50.932;4.442;2022-07-29T11:39:46;50.30;28.90
22418;DHT22;11376;50.932;4.442;2022-07-29T11:47:22;52.90;25.10
22418;DHT22;11376;50.932;4.442;2022-07-29T11:49:50;53.50;24.30
22418;DHT22;11376;50.932;4.442;2022-07-29T11:52:16;53.70;23.80
22418;DHT22;11376;50.932;4.442;2022-07-29T11:54:43;53.80;23.30
22418;DHT22;11376;50.932;4.442;2022-07-29T11:57:09;53.80;22.90
22418;DHT22;11376;50.932;4.442;2022-07-29T11:59:39;52.60;23.60
22418;DHT22;11376;50.932;4.442;2022-07-29T12:02:05;51.60;23.10
22418;DHT22;11376;50.932;4.442;2022-07-29T12:04:31;48.90;24.00
22418;DHT22;11376;50.932;4.442;2022-07-29T12:06:56;46.70;25.20
22418;DHT22;11376;50.932;4.442;2022-07-29T12:09:23;44.80;26.40
22418;DHT22;11376;50.932;4.442;2022-07-29T12:11:49;44.80;26.50
22418;DHT22;11376;50.932;4.442;2022-07-29T12:14:28;45.60;26.20
22418;DHT22;11376;50.932;4.442;2022-07-29T12:16:55;46.20;26.00
22418;DHT22;11376;50.932;4.442;2022-07-29T12:19:20;48.30;25.30
22418;DHT22;11376;50.932;4.442;2022-07-29T12:21:47;49.90;24.50
22418;DHT22;11376;50.932;4.442;2022-07-29T12:24:13;49.20;24.40
22418;DHT22;11376;50.932;4.442;2022-07-29T12:26:52;49.30;25.30
22418;DHT22;11376;50.932;4.442;2022-07-29T12:29:18;50.80;23.80
22418;DHT22;11376;50.932;4.442;2022-07-29T12:31:45;52.00;23.00
22418;DHT22;11376;50.932;4.442;2022-07-29T12:34:15;51.80;22.90
22418;DHT22;11376;50.932;4.442;2022-07-29T12:36:42;51.10;22.90
22418;DHT22;11376;50.932;4.442;2022-07-29T12:39:09;51.70;23.00
22418;DHT22;11376;50.932;4.442;2022-07-29T12:41:35;52.70;22.40
22418;DHT22;11376;50.932;4.442;2022-07-29T12:44:01;54.00;21.90
22418;DHT22;11376;50.932;4.442;2022-07-29T12:46:27;54.70;21.50
22418;DHT22;11376;50.932;4.442;2022-07-29T12:48:54;55.30;21.00
22418;DHT22;11376;50.932;4.442;2022-07-29T12:51:29;55.60;20.80
22418;DHT22;11376;50.932;4.442;2022-07-29T12:54:11;54.70;20.90
22418;DHT22;11376;50.932;4.442;2022-07-29T12:56:39;52.00;21.80
22418;DHT22;11376;50.932;4.442;2022-07-29T12:59:17;49.40;22.90
22418;DHT22;11376;50.932;4.442;2022-07-29T13:01:45;47.60;24.00
22418;DHT22;11376;50.932;4.442;2022-07-29T13:04:24;48.20;24.00
22418;DHT22;11376;50.932;4.442;2022-07-29T13:07:02;49.40;23.20
22418;DHT22;11376;50.932;4.442;2022-07-29T13:09:42;49.30;23.10
22418;DHT22;11376;50.932;4.442;2022-07-29T13:12:10;47.30;24.40
22418;DHT22;11376;50.932;4.442;2022-07-29T13:14:47;46.50;24.70
22418;DHT22;11376;50.932;4.442;2022-07-29T13:17:17;45.10;25.40
22418;DHT22;11376;50.932;4.442;2022-07-29T13:20:09;43.60;26.30
22418;DHT22;11376;50.932;4.442;2022-07-29T13:22:38;42.10;27.40
22418;DHT22;11376;50.932;4.442;2022-07-29T13:25:05;40.70;28.60
22418;DHT22;11376;50.932;4.442;2022-07-29T13:27:37;40.10;29.00
22418;DHT22;11376;50.932;4.442;2022-07-29T13:30:05;39.60;29.40
22418;DHT22;11376;50.932;4.442;2022-07-29T13:32:32;40.00;29.40
22418;DHT22;11376;50.932;4.442;2022-07-29T13:35:02;40.10;29.10
22418;DHT22;11376;50.932;4.442;2022-07-29T13:37:28;39.40;29.60
22418;DHT22;11376;50.932;4.442;2022-07-29T13:39:57;38.60;30.00
22418;DHT22;11376;50.932;4.442;2022-07-29T13:42:23;38.20;30.70
22418;DHT22;11376;50.932;4.442;2022-07-29T13:44:50;39.70;30.00
22418;DHT22;11376;50.932;4.442;2022-07-29T13:47:17;42.00;28.00
22418;DHT22;11376;50.932;4.442;2022-07-29T13:49:43;43.70;26.90
22418;DHT22;11376;50.932;4.442;2022-07-29T13:52:09;44.80;25.90
22418;DHT22;11376;50.932;4.442;2022-07-29T13:54:34;45.70;25.50
22418;DHT22;11376;50.932;4.442;2022-07-29T13:57:06;45.80;25.40
22418;DHT22;11376;50.932;4.442;2022-07-29T13:59:32;46.50;25.10
22418;DHT22;11376;50.932;4.442;2022-07-29T14:01:58;47.00;25.10
22418;DHT22;11376;50.932;4.442;2022-07-29T14:04:24;47.10;24.70
22418;DHT22;11376;50.932;4.442;2022-07-29T14:06:50;47.50;24.30
22418;DHT22;11376;50.932;4.442;2022-07-29T14:09:16;47.60;24.20
22418;DHT22;11376;50.932;4.442;2022-07-29T14:11:42;47.90;24.20
22418;DHT22;11376;50.932;4.442;2022-07-29T14:14:07;48.00;24.10
22418;DHT22;11376;50.932;4.442;2022-07-29T14:16:33;47.30;24.30
22418;DHT22;11376;50.932;4.442;2022-07-29T14:18:59;46.20;24.90
22418;DHT22;11376;50.932;4.442;2022-07-29T14:21:25;45.70;25.00
22418;DHT22;11376;50.932;4.442;2022-07-29T14:23:51;46.20;25.00
22418;DHT22;11376;50.932;4.442;2022-07-29T14:26:18;47.00;24.70
22418;DHT22;11376;50.932;4.442;2022-07-29T14:28:43;47.80;23.90
22418;DHT22;11376;50.932;4.442;2022-07-29T14:31:09;47.90;24.10
22418;DHT22;11376;50.932;4.442;2022-07-29T14:33:35;48.00;24.00
22418;DHT22;11376;50.932;4.442;2022-07-29T14:36:01;48.00;23.80
22418;DHT22;11376;50.932;4.442;2022-07-29T14:38:26;47.80;23.70
22418;DHT22;11376;50.932;4.442;2022-07-29T14:40:52;47.80;23.70
22418;DHT22;11376;50.932;4.442;2022-07-29T14:43:17;47.50;23.60
22418;DHT22;11376;50.932;4.442;2022-07-29T14:45:43;46.30;24.10
22418;DHT22;11376;50.932;4.442;2022-07-29T14:48:09;44.40;25.10
22418;DHT22;11376;50.932;4.442;2022-07-29T14:50:36;43.00;26.40
22418;DHT22;11376;50.932;4.442;2022-07-29T14:53:02;43.00;26.80
22418;DHT22;11376;50.932;4.442;2022-07-29T14:55:28;43.20;26.70
22418;DHT22;11376;50.932;4.442;2022-07-29T14:57:54;43.50;26.60
22418;DHT22;11376;50.932;4.442;2022-07-29T15:00:20;44.00;26.30
22418;DHT22;11376;50.932;4.442;2022-07-29T15:02:46;44.30;26.30
22418;DHT22;11376;50.932;4.442;2022-07-29T15:05:12;44.80;26.20
22418;DHT22;11376;50.932;4.442;2022-07-29T15:07:37;45.20;25.60
22418;DHT22;11376;50.932;4.442;2022-07-29T15:10:03;45.70;25.10
22418;DHT22;11376;50.932;4.442;2022-07-29T15:12:30;46.00;24.70
22418;DHT22;11376;50.932;4.442;2022-07-29T15:14:55;46.20;24.40
22418;DHT22;11376;50.932;4.442;2022-07-29T15:17:21;45.10;24.00
22418;DHT22;11376;50.932;4.442;2022-07-29T15:19:47;44.20;25.00
22418;DHT22;11376;50.932;4.442;2022-07-29T15:22:12;44.50;25.30
22418;DHT22;11376;50.932;4.442;2022-07-29T15:24:38;45.30;25.20
22418;DHT22;11376;50.932;4.442;2022-07-29T15:27:04;45.90;24.90
22418;DHT22;11376;50.932;4.442;2022-07-29T15:29:30;46.60;24.10
22418;DHT22;11376;50.932;4.442;2022-07-29T15:31:55;46.70;23.60
22418;DHT22;11376;50.932;4.442;2022-07-29T15:34:21;46.80;23.60
22418;DHT22;11376;50.932;4.442;2022-07-29T15:36:49;46.10;24.10
22418;DHT22;11376;50.932;4.442;2022-07-29T15:39:15;45.90;24.30
22418;DHT22;11376;50.932;4.442;2022-07-29T15:41:41;45.50;24.40
22418;DHT22;11376;50.932;4.442;2022-07-29T15:44:06;45.20;24.70
22418;DHT22;11376;50.932;4.442;2022-07-29T15:46:32;45.40;24.70
22418;DHT22;11376;50.932;4.442;2022-07-29T15:49:16;45.60;24.70
22418;DHT22;11376;50.932;4.442;2022-07-29T15:51:41;46.00;24.60
22418;DHT22;11376;50.932;4.442;2022-07-29T15:54:07;46.00;24.50
22418;DHT22;11376;50.932;4.442;2022-07-29T15:56:33;45.40;24.70
22418;DHT22;11376;50.932;4.442;2022-07-29T15:58:58;44.90;25.00
22418;DHT22;11376;50.932;4.442;2022-07-29T16:01:24;44.80;25.20
22418;DHT22;11376;50.932;4.442;2022-07-29T16:03:50;44.60;25.20